sensor_id;sensor_type;location;lat;lon;timestamp;P1;durP1;ratioP1;P2;durP2;ratioP2
68365;SDS011;55283;51.466;5.478;2023-03-05T00:01:11;120.75;;;98.32;;
68365;SDS011;55283;51.466;5.478;2023-03-05T00:03:39;120.13;;;94.90;;
68365;SDS011;55283;51.466;5.478;2023-03-05T00:06:07;119.32;;;98.30;;
68365;SDS011;55283;51.466;5.478;2023-03-05T00:08:35;116.63;;;95.05;;
68365;SDS011;55283;51.466;5.478;2023-03-05T00:11:06;119.70;;;95.97;;
68365;SDS011;55283;51.466;5.478;2023-03-05T00:13:36;114.57;;;90.85;;
68365;SDS011;55283;51.466;5.478;2023-03-05T00:16:05;115.85;;;92.45;;
68365;SDS011;55283;51.466;5.478;2023-03-05T00:18:33;113.50;;;89.90;;
68365;SDS011;55283;51.466;5.478;2023-03-05T00:20:59;116.93;;;92.70;;
68365;SDS011;55283;51.466;5.478;2023-03-05T00:23:26;113.38;;;92.03;;
68365;SDS011;55283;51.466;5.478;2023-03-05T00:25:52;112.87;;;88.67;;
68365;SDS011;55283;51.466;5.478;2023-03-05T00:28:17;112.28;;;90.38;;
68365;SDS011;55283;51.466;5.478;2023-03-05T00:30:45;112.87;;;91.80;;
68365;SDS011;55283;51.466;5.478;2023-03-05T00:33:11;110.57;;;89.17;;
68365;SDS011;55283;51.466;5.478;2023-03-05T00:35:41;110.85;;;87.65;;
68365;SDS011;55283;51.466;5.478;2023-03-05T00:38:09;110.72;;;87.28;;
68365;SDS011;55283;51.466;5.478;2023-03-05T00:40:40;106.85;;;86.20;;
68365;SDS011;55283;51.466;5.478;2023-03-05T00:43:06;109.37;;;86.00;;
68365;SDS011;55283;51.466;5.478;2023-03-05T00:45:33;108.38;;;85.10;;
68365;SDS011;55283;51.466;5.478;2023-03-05T00:47:58;105.40;;;85.95;;
68365;SDS011;55283;51.466;5.478;2023-03-05T00:50:24;105.40;;;84.90;;
68365;SDS011;55283;51.466;5.478;2023-03-05T00:52:50;106.93;;;84.33;;
68365;SDS011;55283;51.466;5.478;2023-03-05T00:55:15;107.15;;;85.53;;
68365;SDS011;55283;51.466;5.478;2023-03-05T00:57:41;104.47;;;83.47;;
68365;SDS011;55283;51.466;5.478;2023-03-05T01:00:09;101.40;;;80.37;;
68365;SDS011;55283;51.466;5.478;2023-03-05T01:02:35;100.13;;;82.38;;
68365;SDS011;55283;51.466;5.478;2023-03-05T01:05:00;102.03;;;81.60;;
68365;SDS011;55283;51.466;5.478;2023-03-05T01:07:29;102.43;;;80.78;;
68365;SDS011;55283;51.466;5.478;2023-03-05T01:09:54;98.90;;;79.43;;
68365;SDS011;55283;51.466;5.478;2023-03-05T01:12:20;100.07;;;78.43;;
68365;SDS011;55283;51.466;5.478;2023-03-05T01:14:45;100.30;;;81.65;;
68365;SDS011;55283;51.466;5.478;2023-03-05T01:17:10;98.93;;;80.83;;
68365;SDS011;55283;51.466;5.478;2023-03-05T01:19:36;98.13;;;79.63;;
68365;SDS011;55283;51.466;5.478;2023-03-05T01:22:01;96.77;;;76.93;;
68365;SDS011;55283;51.466;5.478;2023-03-05T01:24:30;95.80;;;77.70;;
68365;SDS011;55283;51.466;5.478;2023-03-05T01:26:56;91.93;;;74.57;;
68365;SDS011;55283;51.466;5.478;2023-03-05T01:29:21;94.17;;;77.90;;
68365;SDS011;55283;51.466;5.478;2023-03-05T01:31:49;96.37;;;77.70;;
68365;SDS011;55283;51.466;5.478;2023-03-05T01:34:18;95.50;;;76.22;;
68365;SDS011;55283;51.466;5.478;2023-03-05T01:36:45;92.03;;;74.18;;
68365;SDS011;55283;51.466;5.478;2023-03-05T01:39:16;92.65;;;73.63;;
68365;SDS011;55283;51.466;5.478;2023-03-05T01:41:41;93.03;;;74.10;;
68365;SDS011;55283;51.466;5.478;2023-03-05T01:44:14;90.30;;;72.90;;
68365;SDS011;55283;51.466;5.478;2023-03-05T01:46:46;88.63;;;71.93;;
68365;SDS011;55283;51.466;5.478;2023-03-05T01:49:13;90.43;;;72.07;;
68365;SDS011;55283;51.466;5.478;2023-03-05T01:54:09;88.37;;;69.77;;
68365;SDS011;55283;51.466;5.478;2023-03-05T01:56:40;88.53;;;69.93;;
68365;SDS011;55283;51.466;5.478;2023-03-05T01:59:07;88.07;;;71.28;;
68365;SDS011;55283;51.466;5.478;2023-03-05T02:01:37;88.15;;;72.00;;
68365;SDS011;55283;51.466;5.478;2023-03-05T02:04:05;88.63;;;70.73;;
68365;SDS011;55283;51.466;5.478;2023-03-05T02:06:33;88.18;;;70.75;;
68365;SDS011;55283;51.466;5.478;2023-03-05T02:08:59;86.80;;;68.50;;
68365;SDS011;55283;51.466;5.478;2023-03-05T02:11:24;83.33;;;67.13;;
68365;SDS011;55283;51.466;5.478;2023-03-05T02:13:50;83.60;;;66.60;;
68365;SDS011;55283;51.466;5.478;2023-03-05T02:16:16;81.57;;;64.23;;
68365;SDS011;55283;51.466;5.478;2023-03-05T02:18:41;83.47;;;67.13;;
68365;SDS011;55283;51.466;5.478;2023-03-05T02:21:07;85.50;;;68.93;;
68365;SDS011;55283;51.466;5.478;2023-03-05T02:23:36;82.70;;;65.90;;
68365;SDS011;55283;51.466;5.478;2023-03-05T02:26:06;80.05;;;64.63;;
68365;SDS011;55283;51.466;5.478;2023-03-05T02:28:37;83.13;;;67.13;;
68365;SDS011;55283;51.466;5.478;2023-03-05T02:31:15;78.40;;;63.40;;
68365;SDS011;55283;51.466;5.478;2023-03-05T02:33:42;82.85;;;64.57;;
68365;SDS011;55283;51.466;5.478;2023-03-05T02:36:08;80.70;;;63.95;;
68365;SDS011;55283;51.466;5.478;2023-03-05T02:38:36;79.90;;;63.13;;
68365;SDS011;55283;51.466;5.478;2023-03-05T02:41:05;79.15;;;63.35;;
68365;SDS011;55283;51.466;5.478;2023-03-05T02:43:31;79.28;;;63.10;;
68365;SDS011;55283;51.466;5.478;2023-03-05T02:45:59;78.63;;;62.17;;
68365;SDS011;55283;51.466;5.478;2023-03-05T02:48:25;80.65;;;62.70;;
68365;SDS011;55283;51.466;5.478;2023-03-05T02:50:50;77.90;;;61.20;;
68365;SDS011;55283;51.466;5.478;2023-03-05T02:53:16;76.70;;;62.67;;
68365;SDS011;55283;51.466;5.478;2023-03-05T02:55:45;75.10;;;61.83;;
68365;SDS011;55283;51.466;5.478;2023-03-05T02:58:12;76.85;;;61.95;;
68365;SDS011;55283;51.466;5.478;2023-03-05T03:00:43;73.63;;;59.85;;
68365;SDS011;55283;51.466;5.478;2023-03-05T03:03:08;75.17;;;59.33;;
68365;SDS011;55283;51.466;5.478;2023-03-05T03:05:34;74.60;;;59.53;;
68365;SDS011;55283;51.466;5.478;2023-03-05T03:08:03;73.60;;;58.40;;
68365;SDS011;55283;51.466;5.478;2023-03-05T03:10:29;70.85;;;58.28;;
68365;SDS011;55283;51.466;5.478;2023-03-05T03:13:03;73.17;;;58.00;;
68365;SDS011;55283;51.466;5.478;2023-03-05T03:15:29;71.95;;;57.50;;
68365;SDS011;55283;51.466;5.478;2023-03-05T03:17:54;71.63;;;57.50;;
68365;SDS011;55283;51.466;5.478;2023-03-05T03:20:19;70.63;;;57.10;;
68365;SDS011;55283;51.466;5.478;2023-03-05T03:22:48;73.00;;;57.50;;
68365;SDS011;55283;51.466;5.478;2023-03-05T03:25:15;71.50;;;56.63;;
68365;SDS011;55283;51.466;5.478;2023-03-05T03:27:42;71.13;;;57.22;;
68365;SDS011;55283;51.466;5.478;2023-03-05T03:30:10;70.30;;;55.93;;
68365;SDS011;55283;51.466;5.478;2023-03-05T03:32:39;70.45;;;55.85;;
68365;SDS011;55283;51.466;5.478;2023-03-05T03:35:13;69.32;;;55.88;;
68365;SDS011;55283;51.466;5.478;2023-03-05T03:37:39;69.70;;;56.67;;
68365;SDS011;55283;51.466;5.478;2023-03-05T03:40:08;70.40;;;56.20;;
68365;SDS011;55283;51.466;5.478;2023-03-05T03:42:39;66.47;;;53.40;;
68365;SDS011;55283;51.466;5.478;2023-03-05T03:45:07;65.90;;;54.37;;
68365;SDS011;55283;51.466;5.478;2023-03-05T03:47:33;68.25;;;53.75;;
68365;SDS011;55283;51.466;5.478;2023-03-05T03:49:58;64.53;;;52.27;;
68365;SDS011;55283;51.466;5.478;2023-03-05T03:52:24;69.73;;;54.20;;
68365;SDS011;55283;51.466;5.478;2023-03-05T03:54:50;68.07;;;54.45;;
68365;SDS011;55283;51.466;5.478;2023-03-05T03:57:17;64.90;;;52.67;;
68365;SDS011;55283;51.466;5.478;2023-03-05T03:59:43;65.00;;;53.13;;
68365;SDS011;55283;51.466;5.478;2023-03-05T04:02:12;62.50;;;51.55;;
68365;SDS011;55283;51.466;5.478;2023-03-05T04:04:38;65.53;;;53.20;;
68365;SDS011;55283;51.466;5.478;2023-03-05T04:07:03;63.67;;;51.47;;
68365;SDS011;55283;51.466;5.478;2023-03-05T04:09:34;65.15;;;52.35;;
68365;SDS011;55283;51.466;5.478;2023-03-05T04:11:59;64.20;;;51.77;;
68365;SDS011;55283;51.466;5.478;2023-03-05T04:14:24;62.57;;;50.67;;
68365;SDS011;55283;51.466;5.478;2023-03-05T04:16:51;62.25;;;51.15;;
68365;SDS011;55283;51.466;5.478;2023-03-05T04:19:16;62.77;;;51.33;;
68365;SDS011;55283;51.466;5.478;2023-03-05T04:21:42;61.57;;;49.70;;
68365;SDS011;55283;51.466;5.478;2023-03-05T04:24:07;62.75;;;51.78;;
68365;SDS011;55283;51.466;5.478;2023-03-05T04:26:33;60.77;;;50.43;;
68365;SDS011;55283;51.466;5.478;2023-03-05T04:28:58;63.43;;;50.87;;
68365;SDS011;55283;51.466;5.478;2023-03-05T04:31:24;61.17;;;49.63;;
68365;SDS011;55283;51.466;5.478;2023-03-05T04:33:49;61.03;;;50.10;;
68365;SDS011;55283;51.466;5.478;2023-03-05T04:36:14;56.90;;;47.87;;
68365;SDS011;55283;51.466;5.478;2023-03-05T04:38:40;59.03;;;48.57;;
68365;SDS011;55283;51.466;5.478;2023-03-05T04:41:05;60.50;;;48.17;;
68365;SDS011;55283;51.466;5.478;2023-03-05T04:43:31;59.97;;;48.67;;
68365;SDS011;55283;51.466;5.478;2023-03-05T04:45:56;58.10;;;47.83;;
68365;SDS011;55283;51.466;5.478;2023-03-05T04:48:22;58.83;;;48.70;;
68365;SDS011;55283;51.466;5.478;2023-03-05T04:50:47;56.60;;;46.03;;
68365;SDS011;55283;51.466;5.478;2023-03-05T04:53:12;59.28;;;47.08;;
68365;SDS011;55283;51.466;5.478;2023-03-05T04:55:38;55.60;;;46.10;;
68365;SDS011;55283;51.466;5.478;2023-03-05T04:58:03;56.43;;;46.90;;
68365;SDS011;55283;51.466;5.478;2023-03-05T05:00:29;55.87;;;46.47;;
68365;SDS011;55283;51.466;5.478;2023-03-05T05:02:54;53.40;;;43.67;;
68365;SDS011;55283;51.466;5.478;2023-03-05T05:05:21;55.53;;;45.13;;
68365;SDS011;55283;51.466;5.478;2023-03-05T05:07:48;55.73;;;46.87;;
68365;SDS011;55283;51.466;5.478;2023-03-05T05:10:20;55.22;;;45.30;;
68365;SDS011;55283;51.466;5.478;2023-03-05T05:12:45;53.40;;;44.80;;
68365;SDS011;55283;51.466;5.478;2023-03-05T05:15:11;54.65;;;44.92;;
68365;SDS011;55283;51.466;5.478;2023-03-05T05:17:39;53.10;;;44.23;;
68365;SDS011;55283;51.466;5.478;2023-03-05T05:20:05;51.20;;;42.72;;
68365;SDS011;55283;51.466;5.478;2023-03-05T05:22:32;52.77;;;44.80;;
68365;SDS011;55283;51.466;5.478;2023-03-05T05:25:00;53.30;;;43.78;;
68365;SDS011;55283;51.466;5.478;2023-03-05T05:27:29;54.28;;;44.03;;
68365;SDS011;55283;51.466;5.478;2023-03-05T05:29:55;53.10;;;44.13;;
68365;SDS011;55283;51.466;5.478;2023-03-05T05:32:21;54.30;;;44.40;;
68365;SDS011;55283;51.466;5.478;2023-03-05T05:34:48;51.72;;;43.42;;
68365;SDS011;55283;51.466;5.478;2023-03-05T05:37:18;52.22;;;41.97;;
68365;SDS011;55283;51.466;5.478;2023-03-05T05:39:43;51.17;;;42.13;;
68365;SDS011;55283;51.466;5.478;2023-03-05T05:42:14;51.53;;;42.88;;
68365;SDS011;55283;51.466;5.478;2023-03-05T05:44:45;53.90;;;44.03;;
68365;SDS011;55283;51.466;5.478;2023-03-05T05:47:11;51.10;;;42.97;;
68365;SDS011;55283;51.466;5.478;2023-03-05T05:49:38;50.28;;;41.65;;
68365;SDS011;55283;51.466;5.478;2023-03-05T05:52:03;51.80;;;41.80;;
68365;SDS011;55283;51.466;5.478;2023-03-05T05:54:29;49.35;;;40.72;;
68365;SDS011;55283;51.466;5.478;2023-03-05T05:56:54;48.20;;;40.43;;
68365;SDS011;55283;51.466;5.478;2023-03-05T05:59:20;49.00;;;39.23;;
68365;SDS011;55283;51.466;5.478;2023-03-05T06:01:45;48.40;;;40.67;;
68365;SDS011;55283;51.466;5.478;2023-03-05T06:04:10;49.87;;;40.73;;
68365;SDS011;55283;51.466;5.478;2023-03-05T06:06:36;46.83;;;39.50;;
68365;SDS011;55283;51.466;5.478;2023-03-05T06:09:02;48.67;;;41.13;;
68365;SDS011;55283;51.466;5.478;2023-03-05T06:11:27;47.95;;;40.63;;
68365;SDS011;55283;51.466;5.478;2023-03-05T06:13:53;48.17;;;39.37;;
68365;SDS011;55283;51.466;5.478;2023-03-05T06:16:22;46.08;;;39.10;;
68365;SDS011;55283;51.466;5.478;2023-03-05T06:18:49;48.13;;;39.97;;
68365;SDS011;55283;51.466;5.478;2023-03-05T06:21:17;45.95;;;38.67;;
68365;SDS011;55283;51.466;5.478;2023-03-05T06:23:45;45.38;;;38.42;;
68365;SDS011;55283;51.466;5.478;2023-03-05T06:26:19;45.70;;;37.77;;
68365;SDS011;55283;51.466;5.478;2023-03-05T06:28:46;46.35;;;38.55;;
68365;SDS011;55283;51.466;5.478;2023-03-05T06:31:13;45.50;;;37.60;;
68365;SDS011;55283;51.466;5.478;2023-03-05T06:33:43;47.50;;;38.80;;
68365;SDS011;55283;51.466;5.478;2023-03-05T06:36:11;46.17;;;37.40;;
68365;SDS011;55283;51.466;5.478;2023-03-05T06:38:38;39.67;;;33.00;;
68365;SDS011;55283;51.466;5.478;2023-03-05T06:41:11;40.17;;;33.45;;
68365;SDS011;55283;51.466;5.478;2023-03-05T06:43:42;42.93;;;32.80;;
68365;SDS011;55283;51.466;5.478;2023-03-05T06:46:24;37.78;;;31.38;;
68365;SDS011;55283;51.466;5.478;2023-03-05T06:48:51;40.03;;;31.48;;
68365;SDS011;55283;51.466;5.478;2023-03-05T06:51:26;38.13;;;31.92;;
68365;SDS011;55283;51.466;5.478;2023-03-05T06:53:53;36.07;;;30.97;;
68365;SDS011;55283;51.466;5.478;2023-03-05T06:56:20;36.08;;;29.15;;
68365;SDS011;55283;51.466;5.478;2023-03-05T06:58:48;33.33;;;27.65;;
68365;SDS011;55283;51.466;5.478;2023-03-05T07:01:15;34.13;;;26.93;;
68365;SDS011;55283;51.466;5.478;2023-03-05T07:03:41;31.30;;;25.10;;
68365;SDS011;55283;51.466;5.478;2023-03-05T07:06:10;27.90;;;23.87;;
68365;SDS011;55283;51.466;5.478;2023-03-05T07:08:37;26.38;;;22.27;;
68365;SDS011;55283;51.466;5.478;2023-03-05T07:11:13;26.92;;;22.58;;
68365;SDS011;55283;51.466;5.478;2023-03-05T07:13:40;25.20;;;21.60;;
68365;SDS011;55283;51.466;5.478;2023-03-05T07:16:08;23.07;;;19.30;;
68365;SDS011;55283;51.466;5.478;2023-03-05T07:18:41;21.42;;;18.10;;
68365;SDS011;55283;51.466;5.478;2023-03-05T07:21:10;19.75;;;16.17;;
68365;SDS011;55283;51.466;5.478;2023-03-05T07:23:41;18.37;;;15.23;;
68365;SDS011;55283;51.466;5.478;2023-03-05T07:26:06;16.15;;;13.65;;
68365;SDS011;55283;51.466;5.478;2023-03-05T07:28:32;19.97;;;14.30;;
68365;SDS011;55283;51.466;5.478;2023-03-05T07:31:02;19.38;;;13.25;;
68365;SDS011;55283;51.466;5.478;2023-03-05T07:33:29;20.07;;;12.70;;
68365;SDS011;55283;51.466;5.478;2023-03-05T07:35:58;19.05;;;12.43;;
68365;SDS011;55283;51.466;5.478;2023-03-05T07:38:23;14.98;;;10.98;;
68365;SDS011;55283;51.466;5.478;2023-03-05T07:40:49;17.27;;;9.90;;
68365;SDS011;55283;51.466;5.478;2023-03-05T07:43:18;18.08;;;9.15;;
68365;SDS011;55283;51.466;5.478;2023-03-05T07:45:46;10.70;;;7.13;;
68365;SDS011;55283;51.466;5.478;2023-03-05T07:48:15;13.48;;;8.23;;
68365;SDS011;55283;51.466;5.478;2023-03-05T07:50:45;12.95;;;7.38;;
68365;SDS011;55283;51.466;5.478;2023-03-05T07:53:10;10.70;;;5.60;;
68365;SDS011;55283;51.466;5.478;2023-03-05T07:55:45;8.77;;;4.30;;
68365;SDS011;55283;51.466;5.478;2023-03-05T07:58:11;4.30;;;3.13;;
68365;SDS011;55283;51.466;5.478;2023-03-05T08:00:38;9.60;;;3.50;;
68365;SDS011;55283;51.466;5.478;2023-03-05T08:03:04;6.25;;;2.70;;
68365;SDS011;55283;51.466;5.478;2023-03-05T08:05:32;4.90;;;3.00;;
68365;SDS011;55283;51.466;5.478;2023-03-05T08:07:57;4.38;;;2.40;;
68365;SDS011;55283;51.466;5.478;2023-03-05T08:10:23;4.77;;;2.57;;
68365;SDS011;55283;51.466;5.478;2023-03-05T08:12:51;4.57;;;2.88;;
68365;SDS011;55283;51.466;5.478;2023-03-05T08:15:16;4.90;;;2.90;;
68365;SDS011;55283;51.466;5.478;2023-03-05T08:17:42;4.20;;;2.70;;
68365;SDS011;55283;51.466;5.478;2023-03-05T08:20:09;8.10;;;2.90;;
68365;SDS011;55283;51.466;5.478;2023-03-05T08:22:36;7.20;;;2.92;;
68365;SDS011;55283;51.466;5.478;2023-03-05T08:25:05;6.57;;;2.80;;
68365;SDS011;55283;51.466;5.478;2023-03-05T08:27:32;8.35;;;3.08;;
68365;SDS011;55283;51.466;5.478;2023-03-05T08:29:57;7.33;;;3.10;;
68365;SDS011;55283;51.466;5.478;2023-03-05T08:32:25;4.18;;;2.60;;
68365;SDS011;55283;51.466;5.478;2023-03-05T08:34:54;4.70;;;2.60;;
68365;SDS011;55283;51.466;5.478;2023-03-05T08:37:21;5.25;;;2.90;;
68365;SDS011;55283;51.466;5.478;2023-03-05T08:39:47;5.70;;;2.80;;
68365;SDS011;55283;51.466;5.478;2023-03-05T08:42:12;7.43;;;3.10;;
68365;SDS011;55283;51.466;5.478;2023-03-05T08:44:37;4.20;;;2.50;;
68365;SDS011;55283;51.466;5.478;2023-03-05T08:47:03;4.73;;;2.43;;
68365;SDS011;55283;51.466;5.478;2023-03-05T08:49:31;5.00;;;2.50;;
68365;SDS011;55283;51.466;5.478;2023-03-05T08:51:56;5.80;;;2.40;;
68365;SDS011;55283;51.466;5.478;2023-03-05T08:54:24;5.30;;;2.60;;
68365;SDS011;55283;51.466;5.478;2023-03-05T08:56:50;4.07;;;2.50;;
68365;SDS011;55283;51.466;5.478;2023-03-05T08:59:15;4.60;;;2.60;;
68365;SDS011;55283;51.466;5.478;2023-03-05T09:01:40;4.13;;;2.83;;
68365;SDS011;55283;51.466;5.478;2023-03-05T09:04:06;5.38;;;2.67;;
68365;SDS011;55283;51.466;5.478;2023-03-05T09:06:31;5.20;;;2.70;;
68365;SDS011;55283;51.466;5.478;2023-03-05T09:08:58;4.93;;;2.63;;
68365;SDS011;55283;51.466;5.478;2023-03-05T09:11:24;4.87;;;2.80;;
68365;SDS011;55283;51.466;5.478;2023-03-05T09:13:52;5.03;;;2.63;;
68365;SDS011;55283;51.466;5.478;2023-03-05T09:16:18;6.80;;;2.80;;
68365;SDS011;55283;51.466;5.478;2023-03-05T09:18:44;4.10;;;2.53;;
68365;SDS011;55283;51.466;5.478;2023-03-05T09:21:14;5.45;;;2.70;;
68365;SDS011;55283;51.466;5.478;2023-03-05T09:23:41;8.03;;;2.57;;
68365;SDS011;55283;51.466;5.478;2023-03-05T09:26:11;4.65;;;2.25;;
68365;SDS011;55283;51.466;5.478;2023-03-05T09:28:38;4.50;;;2.53;;
68365;SDS011;55283;51.466;5.478;2023-03-05T09:31:07;3.87;;;2.37;;
68365;SDS011;55283;51.466;5.478;2023-03-05T09:33:37;5.80;;;2.70;;
68365;SDS011;55283;51.466;5.478;2023-03-05T09:36:03;4.22;;;2.30;;
68365;SDS011;55283;51.466;5.478;2023-03-05T09:38:29;4.07;;;2.37;;
68365;SDS011;55283;51.466;5.478;2023-03-05T09:40:58;4.97;;;2.40;;
68365;SDS011;55283;51.466;5.478;2023-03-05T09:46:43;3.50;;;2.43;;
68365;SDS011;55283;51.466;5.478;2023-03-05T09:49:20;4.97;;;2.17;;
68365;SDS011;55283;51.466;5.478;2023-03-05T09:52:02;3.42;;;2.22;;
68365;SDS011;55283;51.466;5.478;2023-03-05T09:54:39;4.53;;;2.30;;
68365;SDS011;55283;51.466;5.478;2023-03-05T09:57:14;3.45;;;2.05;;
68365;SDS011;55283;51.466;5.478;2023-03-05T10:02:36;5.57;;;2.50;;
68365;SDS011;55283;51.466;5.478;2023-03-05T10:07:51;3.80;;;2.30;;
68365;SDS011;55283;51.466;5.478;2023-03-05T10:18:50;3.88;;;1.98;;
68365;SDS011;55283;51.466;5.478;2023-03-05T10:21:23;3.13;;;1.80;;
68365;SDS011;55283;51.466;5.478;2023-03-05T10:24:10;4.15;;;2.13;;
68365;SDS011;55283;51.466;5.478;2023-03-05T10:28:00;4.15;;;2.15;;
68365;SDS011;55283;51.466;5.478;2023-03-05T10:30:05;2.45;;;2.08;;
68365;SDS011;55283;51.466;5.478;2023-03-05T10:32:40;3.27;;;2.00;;
68365;SDS011;55283;51.466;5.478;2023-03-05T10:40:56;3.33;;;1.97;;
68365;SDS011;55283;51.466;5.478;2023-03-05T10:46:16;3.30;;;1.90;;
68365;SDS011;55283;51.466;5.478;2023-03-05T10:54:00;4.80;;;2.10;;
68365;SDS011;55283;51.466;5.478;2023-03-05T10:56:45;2.67;;;1.83;;
68365;SDS011;55283;51.466;5.478;2023-03-05T10:59:11;2.90;;;1.80;;
68365;SDS011;55283;51.466;5.478;2023-03-05T11:01:36;2.73;;;1.97;;
68365;SDS011;55283;51.466;5.478;2023-03-05T11:04:06;3.47;;;1.90;;
68365;SDS011;55283;51.466;5.478;2023-03-05T11:06:49;2.47;;;2.00;;
68365;SDS011;55283;51.466;5.478;2023-03-05T11:09:15;3.22;;;2.05;;
68365;SDS011;55283;51.466;5.478;2023-03-05T11:12:03;2.20;;;1.80;;
68365;SDS011;55283;51.466;5.478;2023-03-05T11:14:38;3.85;;;1.90;;
68365;SDS011;55283;51.466;5.478;2023-03-05T11:17:28;3.53;;;1.90;;
68365;SDS011;55283;51.466;5.478;2023-03-05T11:20:28;2.20;;;1.80;;
68365;SDS011;55283;51.466;5.478;2023-03-05T11:25:50;3.65;;;1.90;;
68365;SDS011;55283;51.466;5.478;2023-03-05T11:28:17;2.95;;;2.00;;
68365;SDS011;55283;51.466;5.478;2023-03-05T11:30:53;2.37;;;1.80;;
68365;SDS011;55283;51.466;5.478;2023-03-05T11:33:28;2.45;;;1.90;;
68365;SDS011;55283;51.466;5.478;2023-03-05T11:36:37;2.42;;;1.92;;
68365;SDS011;55283;51.466;5.478;2023-03-05T11:38:54;2.27;;;1.70;;
68365;SDS011;55283;51.466;5.478;2023-03-05T11:42:09;2.58;;;1.90;;
68365;SDS011;55283;51.466;5.478;2023-03-05T11:44:19;2.58;;;1.70;;
68365;SDS011;55283;51.466;5.478;2023-03-05T11:46:59;3.42;;;1.80;;
68365;SDS011;55283;51.466;5.478;2023-03-05T11:49:27;2.67;;;1.80;;
68365;SDS011;55283;51.466;5.478;2023-03-05T11:54:47;2.20;;;1.70;;
68365;SDS011;55283;51.466;5.478;2023-03-05T11:57:16;2.00;;;1.63;;
68365;SDS011;55283;51.466;5.478;2023-03-05T11:59:45;2.60;;;1.80;;
68365;SDS011;55283;51.466;5.478;2023-03-05T12:02:16;3.90;;;1.90;;
68365;SDS011;55283;51.466;5.478;2023-03-05T12:04:45;2.50;;;1.83;;
68365;SDS011;55283;51.466;5.478;2023-03-05T12:07:19;2.20;;;1.60;;
68365;SDS011;55283;51.466;5.478;2023-03-05T12:09:52;2.72;;;1.80;;
68365;SDS011;55283;51.466;5.478;2023-03-05T12:20:26;2.87;;;1.70;;
68365;SDS011;55283;51.466;5.478;2023-03-05T12:23:05;2.58;;;1.67;;
68365;SDS011;55283;51.466;5.478;2023-03-05T12:25:44;2.10;;;1.58;;
68365;SDS011;55283;51.466;5.478;2023-03-05T12:35:53;2.17;;;1.80;;
68365;SDS011;55283;51.466;5.478;2023-03-05T12:38:44;2.28;;;1.75;;
68365;SDS011;55283;51.466;5.478;2023-03-05T12:46:32;2.08;;;1.70;;
68365;SDS011;55283;51.466;5.478;2023-03-05T12:51:52;1.87;;;1.50;;
68365;SDS011;55283;51.466;5.478;2023-03-05T12:54:21;2.72;;;1.70;;
68365;SDS011;55283;51.466;5.478;2023-03-05T12:57:02;2.55;;;1.70;;
68365;SDS011;55283;51.466;5.478;2023-03-05T12:59:39;2.13;;;1.60;;
68365;SDS011;55283;51.466;5.478;2023-03-05T13:02:21;2.63;;;1.70;;
68365;SDS011;55283;51.466;5.478;2023-03-05T13:05:04;2.42;;;1.50;;
68365;SDS011;55283;51.466;5.478;2023-03-05T13:07:39;1.87;;;1.60;;
68365;SDS011;55283;51.466;5.478;2023-03-05T13:10:04;2.20;;;1.65;;
68365;SDS011;55283;51.466;5.478;2023-03-05T13:12:30;2.23;;;1.50;;
68365;SDS011;55283;51.466;5.478;2023-03-05T13:14:57;3.17;;;1.92;;
68365;SDS011;55283;51.466;5.478;2023-03-05T13:17:37;2.63;;;1.70;;
68365;SDS011;55283;51.466;5.478;2023-03-05T13:23:03;2.03;;;1.60;;
68365;SDS011;55283;51.466;5.478;2023-03-05T13:25:32;1.73;;;1.55;;
68365;SDS011;55283;51.466;5.478;2023-03-05T13:28:01;1.63;;;1.40;;
68365;SDS011;55283;51.466;5.478;2023-03-05T13:30:28;3.22;;;1.92;;
68365;SDS011;55283;51.466;5.478;2023-03-05T13:32:56;3.17;;;1.60;;
68365;SDS011;55283;51.466;5.478;2023-03-05T13:35:27;5.03;;;1.60;;
68365;SDS011;55283;51.466;5.478;2023-03-05T13:37:53;3.08;;;1.60;;
68365;SDS011;55283;51.466;5.478;2023-03-05T13:40:29;2.63;;;1.80;;
68365;SDS011;55283;51.466;5.478;2023-03-05T13:43:09;2.10;;;1.60;;
68365;SDS011;55283;51.466;5.478;2023-03-05T13:45:42;2.17;;;1.55;;
68365;SDS011;55283;51.466;5.478;2023-03-05T13:48:14;2.63;;;1.60;;
68365;SDS011;55283;51.466;5.478;2023-03-05T13:50:44;2.03;;;1.70;;
68365;SDS011;55283;51.466;5.478;2023-03-05T13:53:38;2.05;;;1.60;;
68365;SDS011;55283;51.466;5.478;2023-03-05T13:56:04;3.75;;;1.65;;
68365;SDS011;55283;51.466;5.478;2023-03-05T13:58:48;2.17;;;1.57;;
68365;SDS011;55283;51.466;5.478;2023-03-05T14:01:26;1.85;;;1.50;;
68365;SDS011;55283;51.466;5.478;2023-03-05T14:04:18;2.20;;;1.55;;
68365;SDS011;55283;51.466;5.478;2023-03-05T14:07:02;1.87;;;1.50;;
68365;SDS011;55283;51.466;5.478;2023-03-05T14:09:31;2.15;;;1.58;;
68365;SDS011;55283;51.466;5.478;2023-03-05T14:15:02;1.90;;;1.40;;
68365;SDS011;55283;51.466;5.478;2023-03-05T14:17:45;1.63;;;1.40;;
68365;SDS011;55283;51.466;5.478;2023-03-05T14:20:29;2.40;;;1.63;;
68365;SDS011;55283;51.466;5.478;2023-03-05T14:22:56;1.83;;;1.50;;
68365;SDS011;55283;51.466;5.478;2023-03-05T14:28:06;1.88;;;1.67;;
68365;SDS011;55283;51.466;5.478;2023-03-05T14:30:47;2.07;;;1.50;;
68365;SDS011;55283;51.466;5.478;2023-03-05T14:33:22;1.75;;;1.40;;
68365;SDS011;55283;51.466;5.478;2023-03-05T14:35:52;2.03;;;1.50;;
68365;SDS011;55283;51.466;5.478;2023-03-05T14:38:22;1.80;;;1.40;;
68365;SDS011;55283;51.466;5.478;2023-03-05T14:40:56;2.25;;;1.63;;
68365;SDS011;55283;51.466;5.478;2023-03-05T14:43:21;2.35;;;1.50;;
68365;SDS011;55283;51.466;5.478;2023-03-05T14:45:50;1.83;;;1.63;;
68365;SDS011;55283;51.466;5.478;2023-03-05T14:48:16;2.37;;;1.40;;
68365;SDS011;55283;51.466;5.478;2023-03-05T14:53:24;1.92;;;1.30;;
68365;SDS011;55283;51.466;5.478;2023-03-05T14:55:55;1.80;;;1.40;;
68365;SDS011;55283;51.466;5.478;2023-03-05T14:58:25;2.23;;;1.50;;
68365;SDS011;55283;51.466;5.478;2023-03-05T15:00:53;1.50;;;1.40;;
68365;SDS011;55283;51.466;5.478;2023-03-05T15:03:19;2.20;;;1.45;;
68365;SDS011;55283;51.466;5.478;2023-03-05T15:05:47;1.80;;;1.30;;
68365;SDS011;55283;51.466;5.478;2023-03-05T15:08:21;1.40;;;1.30;;
68365;SDS011;55283;51.466;5.478;2023-03-05T15:10:53;1.60;;;1.40;;
68365;SDS011;55283;51.466;5.478;2023-03-05T15:13:21;3.63;;;1.50;;
68365;SDS011;55283;51.466;5.478;2023-03-05T15:15:47;2.58;;;1.30;;
68365;SDS011;55283;51.466;5.478;2023-03-05T15:18:15;2.05;;;1.40;;
68365;SDS011;55283;51.466;5.478;2023-03-05T15:20:43;1.60;;;1.50;;
68365;SDS011;55283;51.466;5.478;2023-03-05T15:23:10;2.20;;;1.30;;
68365;SDS011;55283;51.466;5.478;2023-03-05T15:25:39;1.77;;;1.50;;
68365;SDS011;55283;51.466;5.478;2023-03-05T15:28:05;1.65;;;1.50;;
68365;SDS011;55283;51.466;5.478;2023-03-05T15:30:34;2.20;;;1.50;;
68365;SDS011;55283;51.466;5.478;2023-03-05T15:33:06;2.45;;;1.60;;
68365;SDS011;55283;51.466;5.478;2023-03-05T15:35:38;2.80;;;1.50;;
68365;SDS011;55283;51.466;5.478;2023-03-05T15:38:04;2.03;;;1.50;;
68365;SDS011;55283;51.466;5.478;2023-03-05T15:40:32;2.30;;;1.77;;
68365;SDS011;55283;51.466;5.478;2023-03-05T15:42:58;3.83;;;1.90;;
68365;SDS011;55283;51.466;5.478;2023-03-05T15:45:27;2.10;;;1.60;;
68365;SDS011;55283;51.466;5.478;2023-03-05T15:47:58;2.47;;;1.60;;
68365;SDS011;55283;51.466;5.478;2023-03-05T15:50:24;3.53;;;1.63;;
68365;SDS011;55283;51.466;5.478;2023-03-05T15:52:49;3.10;;;1.80;;
68365;SDS011;55283;51.466;5.478;2023-03-05T15:55:14;3.70;;;1.80;;
68365;SDS011;55283;51.466;5.478;2023-03-05T15:57:43;3.85;;;1.85;;
68365;SDS011;55283;51.466;5.478;2023-03-05T16:00:13;2.90;;;1.53;;